Terminal Aerodrome Forecast
Issued by NWS

Home | Current Version | Previous Version | Text Only | Print | Product List | Glossary On
Versions: 1 2 3 4 5 6 7 8 9 10 11 12 13 14 15
397
FTUS46 KMTR 040541
TAFMRY
TAF
KMRY 040541Z 0406/0506 23005KT P6SM SCT010 BKN100
      TEMPO 0406/0410 BKN010
     FM041000 VRB03KT P6SM OVC009
     FM041800 29008KT P6SM VCSH SCT012 BKN080=

USA.gov is the U.S. government's official web portal to all federal, state and local government web resources and services.